Terminal Aerodrome Forecast
Issued by NWS Paducah, KY

Home | Current Version | Previous Version | Text Only | Print | Product List | Glossary On
Versions: 1 2 3 4 5 6 7 8 9 10 11 12 13 14 15 16 17 18 19 20 21 22 23 24
177
FTUS43 KPAH 261201 AAA
TAFEVV
TAF AMD
KEVV 261201Z 2612/2712 00000KT 6SM BR BKN003
     FM261400 23005KT P6SM SCT035
     FM262300 02004KT P6SM SCT150 BKN250
     FM270800 00000KT 4SM BR SCT150 BKN250=

USA.gov is the U.S. government's official web portal to all federal, state and local government web resources and services.